Nearby METAR Reports

 

YBBN - Brisbane Intl Ar, Australia
Distance from station: SE 37km
Updated: 19/03/2019 17:30
Clear
Clear
 Wind from NNE
Wind: NNE 24 km/h
Temperature: 26°C
Dew Point: 22°C
Humidity: 79%
Barometer: 1009 hPa
Summary: Clear
Visibility: greater than 10 km
2019/03/19 07:30 YBBN 190730Z 02013KT CAVOK 26/22 Q1009 NOSIG
YAMB - Amberley, Australia
Distance from station: SSW 50km
Updated: 19/03/2019 17:30
Clear
Clear
 Wind from N
Wind: N 7 km/h
Temperature: 31°C
Dew Point: 15°C
Humidity: 38%
Barometer: 1008 hPa
Summary: Clear
Visibility: greater than 10 km
2019/03/19 07:30 YAMB 190730Z 36004KT CAVOK 31/15 Q1008 NOSIG
 
YBOK - Oakey (army/Civ), Australia
Distance from station: WSW 112km
Updated: 19/03/2019 17:00
Clear
Clear
 Wind from WSW
Wind: WSW 17 km/h
Temperature: 31°C
Dew Point: 11°C
Humidity: 29%
Barometer: 1010 hPa
Summary: Clear
Visibility: greater than 10 km
2019/03/19 07:00 YBOK 190700Z 25009KT CAVOK 31/11 Q1010 NOSIG
YKRY - Kingaroy Arpt, Australia
Distance from station: NW 121km
Updated: 19/03/2019 17:00
Clear
Clear
 Wind from WSW
Wind: WSW 9 km/h
Temperature: 30°C
Dew Point: 10°C
Humidity: 29%
Barometer: 1011 hPa
Clouds: Clear
Visibility: 10 km
2019/03/19 07:00 YKRY 190700Z AUTO 24005KT 9999 // NCD 30/10 Q1011
 
YBCG - Coolangatta Aws, Australia
Distance from station: SSE 127km
Updated: 19/03/2019 17:30
Clear
Clear
 Wind from N
Wind: N 15 km/h
Temperature: 27°C
Heat Index: 29°C
Dew Point: 22°C
Humidity: 74%
Barometer: 1009 hPa
Clouds: Clear
Visibility: 10 km
2019/03/19 07:30 YBCG 190730Z AUTO 36008KT 9999 // NCD 27/22 Q1009 RF00.0/000.0
YLIS - Lismore Arpt, Australia
Distance from station: SSE 187km
Updated: 19/03/2019 17:00
Mostly cloudy
Mostly cloudy
 Wind from ENE
Wind: ENE 19 km/h
Temperature: 27°C
Heat Index: 29°C
Dew Point: 21°C
Humidity: 70%
Barometer: 1008 hPa
Clouds: Mostly cloudy
Visibility: 10 km
Cloud details: Partly cloudy 2987 m
Mostly cloudy 3658 m
2019/03/19 07:00 YLIS 190700Z AUTO 06010KT 9999 // SCT098 BKN120 27/21 Q1008
 
YCAS - Casino Airport, Australia
Distance from station: S 189km
Updated: 19/03/2019 17:00

 Wind from E
Wind: E 13 km/h
Temperature: 28°C
Heat Index: 28°C
Dew Point: 17°C
Humidity: 51%
Barometer: 1008 hPa
2019/03/19 07:00 YCAS 190700Z AUTO 10007KT //// // ////// 28/17 Q1008
YBNA - Ballina Byron G., Australia
Distance from station: SSE 196km
Updated: 19/03/2019 17:00
Mostly cloudy
Mostly cloudy
 Wind from N
Wind: N 17 km/h
Clouds: Mostly cloudy
Visibility: 10 km
Cloud details: Mostly cloudy 3048 m
2019/03/19 07:00 YBNA 190700Z AUTO 01009KT 9999 // BKN100 26/// Q1009
 
YBUD - Bundaberg, Australia
Distance from station: NNW 260km
Updated: 19/03/2019 17:00
Partly cloudy
Partly cloudy
 Wind from N
Wind: N 13 km/h
Temperature: 28°C
Heat Index: 30°C
Dew Point: 22°C
Humidity: 70%
Barometer: 1010 hPa
Clouds: Partly cloudy
Visibility: 10 km
Cloud details: Partly cloudy 671 m
2019/03/19 07:00 YBUD 190700Z AUTO 01007KT 9999 // SCT022 28/22 Q1010
YGFN - Grafton Arpt, Australia
Distance from station: S 287km
Updated: 19/03/2019 17:00
Partly cloudy
Partly cloudy
 Wind from ESE
Wind: ESE 6 km/h
Temperature: 23°C
Dew Point: 16°C
Humidity: 65%
Barometer: 1010 hPa
Clouds: Partly cloudy
Visibility: 10 km
Cloud details: Partly cloudy 1554 m
Partly cloudy 3048 m
2019/03/19 07:00 YGFN 190700Z AUTO 11003KT 9999 // SCT051 SCT100 23/16 Q1010